Phoenix, Arizona
Current Conditions -  °F | °C
As of 6:51 PM on Sunday 23 Nov 2014 (Local Time) from KPHX Reporting Station
Few Clouds Few Clouds  
Wind Chill: 19°   Ceiling: Unl
Heat Index: 19°   Visibility: 10mi
Dew Point: -16°   Wind: 5mph
Humidity: 8%   Direction: 300°WNW
Pressure: 30.04"   Gusts: NA
Location:  33.45°N, 112.08°W
Report Text: KPHX 240151Z 30004KT 10SM FEW250 19/M16 A3004 RMK AO2 SLP165 T01941156
Loading
Personal Weather Stations






























Interactive Weather Map New forecast layout! Learn more

10-Day Weather Forecast

Advertisements
Track Severe Weather on mobile